createdAt,value
2018-11-27T00:00:16.571Z,82.76
2018-11-27T00:01:17.191Z,82.75
2018-11-27T00:02:17.762Z,82.75
2018-11-27T00:03:18.235Z,83.14
2018-11-27T00:04:18.838Z,82.91
2018-11-27T00:05:18.957Z,82.62
2018-11-27T00:06:19.659Z,82.83
2018-11-27T00:07:20.046Z,82.91
2018-11-27T00:08:20.566Z,83.10
2018-11-27T00:09:21.225Z,83.05
2018-11-27T00:10:21.609Z,83.22
2018-11-27T00:11:22.236Z,83.68
2018-11-27T00:12:23.172Z,83.60
2018-11-27T00:12:31.251Z,83.42
2018-11-27T00:13:32.722Z,83.40
2018-11-27T00:14:33.417Z,82.96
2018-11-27T00:15:34.013Z,83.10
2018-11-27T00:16:34.629Z,83.45
2018-11-27T00:17:35.354Z,83.20
2018-11-27T00:18:36.154Z,83.42
2018-11-27T00:19:36.702Z,83.43
2018-11-27T00:20:37.096Z,83.39
2018-11-27T00:21:37.189Z,83.44
2018-11-27T00:22:37.318Z,83.58
2018-11-27T00:23:37.321Z,83.54
2018-11-27T00:24:38.120Z,83.71
2018-11-27T00:25:38.740Z,83.96
2018-11-27T00:26:39.245Z,83.56
2018-11-27T00:27:39.897Z,84.08
2018-11-27T00:28:40.663Z,84.30
2018-11-27T00:29:41.226Z,84.24
2018-11-27T00:30:41.651Z,84.01
2018-11-27T00:31:41.073Z,83.82
2018-11-27T00:32:42.575Z,84.20
2018-11-27T00:33:42.580Z,84.49
2018-11-27T00:34:43.217Z,84.40
2018-11-27T00:35:43.736Z,83.94
2018-11-27T00:36:44.326Z,84.00
2018-11-27T00:37:44.734Z,84.12
2018-11-27T00:38:45.380Z,84.15
2018-11-27T00:39:45.884Z,84.03
2018-11-27T00:40:46.406Z,84.23
2018-11-27T00:41:47.147Z,84.02
2018-11-27T00:42:47.916Z,84.26
2018-11-27T00:43:48.795Z,84.58
2018-11-27T00:44:49.451Z,84.74
2018-11-27T00:45:49.948Z,84.08
2018-11-27T00:46:50.481Z,84.14
2018-11-27T00:47:50.953Z,84.17
2018-11-27T00:48:51.707Z,83.97
2018-11-27T00:49:52.198Z,84.25
2018-11-27T00:50:52.686Z,84.49
2018-11-27T00:51:53.181Z,84.72
2018-11-27T00:52:53.816Z,84.08
2018-11-27T00:53:54.308Z,84.40
2018-11-27T00:54:58.712Z,83.51
2018-11-27T00:55:54.550Z,83.50
2018-11-27T00:56:56.281Z,83.94
2018-11-27T00:57:56.254Z,83.94
2018-11-27T00:58:56.885Z,84.17
2018-11-27T00:59:05.360Z,83.82
2018-11-27T01:00:06.820Z,83.79
2018-11-27T01:01:07.491Z,83.09
2018-11-27T01:02:08.007Z,83.38
2018-11-27T01:03:08.535Z,83.22
2018-11-27T01:04:09.084Z,83.04
2018-11-27T01:05:09.682Z,83.17
2018-11-27T01:06:10.298Z,83.68
2018-11-27T01:07:11.179Z,83.54
2018-11-27T01:08:11.860Z,83.52
2018-11-27T01:09:12.398Z,83.60
2018-11-27T01:10:13.225Z,83.66
2018-11-27T01:11:13.323Z,83.61
2018-11-27T01:12:14.004Z,83.47
2018-11-27T01:13:14.372Z,83.35
2018-11-27T01:14:14.653Z,83.88
2018-11-27T01:15:15.594Z,84.26
2018-11-27T01:16:16.207Z,84.29
2018-11-27T01:17:16.858Z,84.37
2018-11-27T01:18:17.434Z,84.66
2018-11-27T01:19:18.047Z,84.37
2018-11-27T01:20:18.665Z,84.35
2018-11-27T01:21:19.413Z,84.06
2018-11-27T01:22:19.854Z,83.31
2018-11-27T01:23:20.377Z,83.05
2018-11-27T01:24:20.874Z,83.11
2018-11-27T01:25:21.530Z,83.10
2018-11-27T01:26:22.028Z,83.30
2018-11-27T01:27:22.532Z,83.34
2018-11-27T01:28:23.136Z,83.57
2018-11-27T01:29:23.791Z,83.14
2018-11-27T01:30:24.416Z,83.15
2018-11-27T01:31:24.944Z,83.25
2018-11-27T01:32:25.357Z,82.99
2018-11-27T01:33:25.837Z,83.20
2018-11-27T01:34:25.883Z,83.25
2018-11-27T01:35:26.646Z,83.68
2018-11-27T01:36:27.164Z,83.71
2018-11-27T01:37:27.389Z,83.73
2018-11-27T01:38:27.880Z,83.80
2018-11-27T01:39:28.408Z,83.88
2018-11-27T01:40:28.975Z,83.27
2018-11-27T01:41:29.647Z,83.97
2018-11-27T01:42:30.092Z,84.22
2018-11-27T01:43:30.608Z,84.33
2018-11-27T01:43:38.959Z,83.81
2018-11-27T01:44:40.407Z,83.88
2018-11-27T01:45:41.113Z,83.80
2018-11-27T01:46:41.729Z,84.08
2018-11-27T01:47:42.129Z,83.85
2018-11-27T01:48:42.835Z,83.47
2018-11-27T01:49:43.745Z,83.58
2018-11-27T01:50:44.365Z,83.94
2018-11-27T01:51:44.815Z,84.32
2018-11-27T01:52:45.255Z,84.13
2018-11-27T01:53:45.872Z,83.74
2018-11-27T01:54:46.305Z,83.39
2018-11-27T01:55:46.789Z,83.23
2018-11-27T01:56:47.266Z,83.79
2018-11-27T01:57:47.817Z,84.18
2018-11-27T01:58:48.225Z,83.74
2018-11-27T01:59:48.469Z,83.88
2018-11-27T02:00:48.937Z,83.79
2018-11-27T02:01:49.437Z,83.12
2018-11-27T02:02:50.265Z,83.41
2018-11-27T02:03:50.678Z,83.59
2018-11-27T02:04:51.126Z,83.45
2018-11-27T02:05:51.681Z,83.57
2018-11-27T02:06:52.647Z,83.13
2018-11-27T02:07:53.233Z,83.72
2018-11-27T02:08:53.698Z,84.10
2018-11-27T02:09:54.245Z,83.79
2018-11-27T02:10:54.919Z,83.99
2018-11-27T02:11:55.536Z,83.58
2018-11-27T02:13:00.961Z,83.64
2018-11-27T02:13:55.643Z,83.10
2018-11-27T02:14:57.107Z,82.19
2018-11-27T02:15:57.937Z,81.50
2018-11-27T02:16:58.606Z,81.78
2018-11-27T02:17:59.363Z,81.88
2018-11-27T02:19:00.223Z,82.29
2018-11-27T02:20:00.513Z,82.77
2018-11-27T02:21:01.231Z,82.40
2018-11-27T02:22:01.669Z,82.78
2018-11-27T02:23:02.359Z,82.90
2018-11-27T02:24:02.992Z,83.39
2018-11-27T02:25:03.743Z,83.49
2018-11-27T02:26:04.315Z,83.42
2018-11-27T02:27:05.166Z,83.59
2018-11-27T02:28:05.189Z,83.56
2018-11-27T02:28:13.582Z,83.71
2018-11-27T02:29:15.113Z,83.74
2018-11-27T02:30:15.685Z,83.74
2018-11-27T02:31:16.136Z,83.36
2018-11-27T02:32:16.617Z,83.75
2018-11-27T02:33:16.137Z,84.01
2018-11-27T02:34:17.560Z,83.66
2018-11-27T02:35:18.131Z,83.78
2018-11-27T02:36:18.677Z,83.87
2018-11-27T02:37:19.431Z,83.39
2018-11-27T02:38:19.786Z,83.69
2018-11-27T02:39:20.401Z,83.35
2018-11-27T02:40:20.805Z,83.61
2018-11-27T02:41:21.322Z,84.00
2018-11-27T02:42:21.970Z,84.53
2018-11-27T02:43:22.509Z,83.67
2018-11-27T02:44:23.013Z,83.36
2018-11-27T02:45:23.511Z,83.19
2018-11-27T02:46:23.963Z,83.38
2018-11-27T02:47:23.933Z,83.32
2018-11-27T02:48:24.714Z,83.06
2018-11-27T02:49:25.427Z,83.33
2018-11-27T02:50:26.009Z,83.75
2018-11-27T02:51:26.780Z,83.18
2018-11-27T02:52:27.373Z,82.95
2018-11-27T02:53:28.212Z,83.45
2018-11-27T02:54:28.652Z,83.48
2018-11-27T02:55:29.024Z,83.27
2018-11-27T02:56:29.552Z,83.79
2018-11-27T02:57:30.022Z,84.01
2018-11-27T02:58:30.582Z,83.91
2018-11-27T02:59:31.106Z,84.00
2018-11-27T03:00:31.123Z,83.78
2018-11-27T03:01:31.423Z,83.74
2018-11-27T03:02:32.047Z,83.83
2018-11-27T03:03:32.712Z,84.69
2018-11-27T03:04:33.082Z,84.56
2018-11-27T03:05:33.393Z,83.49
2018-11-27T03:06:33.798Z,83.81
2018-11-27T03:07:34.249Z,83.76
2018-11-27T03:08:34.726Z,83.72
2018-11-27T03:09:35.328Z,83.86
2018-11-27T03:10:35.897Z,83.56
2018-11-27T03:11:36.515Z,83.34
2018-11-27T03:12:37.173Z,83.87
2018-11-27T03:13:37.576Z,83.92
2018-11-27T03:13:45.961Z,83.85
2018-11-27T03:14:46.680Z,83.83
2018-11-27T03:15:47.448Z,83.62
2018-11-27T03:16:48.034Z,83.59
2018-11-27T03:17:48.569Z,83.40
2018-11-27T03:18:49.007Z,83.19
2018-11-27T03:19:49.373Z,83.52
2018-11-27T03:20:49.732Z,83.30
2018-11-27T03:21:50.318Z,83.58
2018-11-27T03:22:50.775Z,83.66
2018-11-27T03:23:50.187Z,83.84
2018-11-27T03:24:51.585Z,83.99
2018-11-27T03:25:52.237Z,84.31
2018-11-27T03:26:52.657Z,84.37
2018-11-27T03:27:53.201Z,84.22
2018-11-27T03:28:53.798Z,84.22
2018-11-27T03:29:54.149Z,84.23
2018-11-27T03:30:54.663Z,84.50
2018-11-27T03:31:55.083Z,84.11
2018-11-27T03:32:55.749Z,84.05
2018-11-27T03:33:55.123Z,83.97
2018-11-27T03:34:56.555Z,84.09
2018-11-27T03:35:57.050Z,84.16
2018-11-27T03:36:57.503Z,84.18
2018-11-27T03:37:57.658Z,84.58
2018-11-27T03:38:58.266Z,84.40
2018-11-27T03:39:57.645Z,84.74
2018-11-27T03:40:59.079Z,84.59
2018-11-27T03:41:59.622Z,84.38
2018-11-27T03:42:59.113Z,84.10
2018-11-27T03:44:00.602Z,84.04
2018-11-27T03:45:00.737Z,84.38
2018-11-27T03:46:01.607Z,84.65
2018-11-27T03:47:02.017Z,84.37
2018-11-27T03:48:02.388Z,84.52
2018-11-27T03:49:02.821Z,84.72
2018-11-27T03:50:03.356Z,85.04
2018-11-27T03:51:03.882Z,84.87
2018-11-27T03:52:04.311Z,85.08
2018-11-27T03:53:04.699Z,85.14
2018-11-27T03:54:05.167Z,84.87
2018-11-27T03:55:05.440Z,84.96
2018-11-27T03:56:05.858Z,84.91
2018-11-27T03:57:06.847Z,84.89
2018-11-27T03:58:07.425Z,84.76
2018-11-27T03:59:07.914Z,84.80
2018-11-27T04:00:08.255Z,84.90
2018-11-27T04:01:08.700Z,85.01
2018-11-27T04:01:17.123Z,85.08
2018-11-27T04:02:17.909Z,85.11
2018-11-27T04:03:18.348Z,84.98
2018-11-27T04:04:18.957Z,85.37
2018-11-27T04:05:19.350Z,85.56
2018-11-27T04:06:19.591Z,85.62
2018-11-27T04:07:20.140Z,85.42
2018-11-27T04:08:20.733Z,85.35
2018-11-27T04:09:21.300Z,85.62
2018-11-27T04:10:21.882Z,85.36
2018-11-27T04:11:22.569Z,84.79
2018-11-27T04:12:22.065Z,84.54
2018-11-27T04:13:23.694Z,84.21
2018-11-27T04:14:24.264Z,84.18
2018-11-27T04:15:24.913Z,84.35
2018-11-27T04:16:25.362Z,84.37
2018-11-27T04:17:25.876Z,84.62
2018-11-27T04:18:26.472Z,84.51
2018-11-27T04:19:27.127Z,84.50
2018-11-27T04:20:27.286Z,84.34
2018-11-27T04:21:27.869Z,84.60
2018-11-27T04:22:28.537Z,84.72
2018-11-27T04:23:29.008Z,85.12
2018-11-27T04:24:28.428Z,85.06
2018-11-27T04:25:29.848Z,85.15
2018-11-27T04:26:30.337Z,85.42
2018-11-27T04:27:30.735Z,85.58
2018-11-27T04:28:31.323Z,85.56
2018-11-27T04:29:31.922Z,85.24
2018-11-27T04:30:32.645Z,84.96
2018-11-27T04:31:33.213Z,85.33
2018-11-27T04:32:33.834Z,84.96
2018-11-27T04:33:34.391Z,85.05
2018-11-27T04:34:34.800Z,84.71
2018-11-27T04:35:35.369Z,84.64
2018-11-27T04:36:36.182Z,85.08
2018-11-27T04:37:36.836Z,85.47
2018-11-27T04:38:37.717Z,85.67
2018-11-27T04:39:38.135Z,85.63
2018-11-27T04:40:39.014Z,85.77
2018-11-27T04:41:39.449Z,85.80
2018-11-27T04:42:39.872Z,85.98
2018-11-27T04:43:40.607Z,85.79
2018-11-27T04:44:41.095Z,85.11
2018-11-27T04:45:41.792Z,85.39
2018-11-27T04:46:42.548Z,85.66
2018-11-27T04:46:50.606Z,86.00
2018-11-27T04:47:52.302Z,86.02
2018-11-27T04:48:52.993Z,85.95
2018-11-27T04:49:53.481Z,85.83
2018-11-27T04:50:53.896Z,85.98
2018-11-27T04:51:54.357Z,85.60
2018-11-27T04:52:55.062Z,85.66
2018-11-27T04:53:55.540Z,85.74
2018-11-27T04:54:55.970Z,85.97
2018-11-27T04:55:56.574Z,86.49
2018-11-27T04:56:57.040Z,86.41
2018-11-27T04:57:57.426Z,86.23
2018-11-27T04:58:57.627Z,86.37
2018-11-27T04:59:58.092Z,86.16
2018-11-27T05:00:58.581Z,86.13
2018-11-27T05:01:59.136Z,86.71
2018-11-27T05:02:59.532Z,87.26
2018-11-27T05:04:00.269Z,87.05
2018-11-27T05:05:00.739Z,86.68
2018-11-27T05:06:01.171Z,86.51
2018-11-27T05:07:01.670Z,86.42
2018-11-27T05:08:02.321Z,86.41
2018-11-27T05:09:02.917Z,85.98
2018-11-27T05:10:03.180Z,86.64
2018-11-27T05:11:03.739Z,86.72
2018-11-27T05:12:04.503Z,87.31
2018-11-27T05:13:04.885Z,87.26
2018-11-27T05:14:05.337Z,87.04
2018-11-27T05:15:05.737Z,87.58
2018-11-27T05:16:06.244Z,87.53
2018-11-27T05:17:06.958Z,87.19
2018-11-27T05:18:07.642Z,87.15
2018-11-27T05:19:08.051Z,87.19
2018-11-27T05:20:08.578Z,87.32
2018-11-27T05:21:09.042Z,86.91
2018-11-27T05:22:09.752Z,86.88
2018-11-27T05:23:10.259Z,86.63
2018-11-27T05:24:10.873Z,86.48
2018-11-27T05:25:11.334Z,86.57
2018-11-27T05:26:11.810Z,86.48
2018-11-27T05:27:12.527Z,86.65
2018-11-27T05:28:13.103Z,87.02
2018-11-27T05:29:13.731Z,87.07
2018-11-27T05:30:14.332Z,87.25
2018-11-27T05:31:14.894Z,87.52
2018-11-27T05:31:23.307Z,87.28
2018-11-27T05:32:24.734Z,87.31
2018-11-27T05:33:25.315Z,86.92
2018-11-27T05:34:25.980Z,86.81
2018-11-27T05:35:26.404Z,86.95
2018-11-27T05:36:26.812Z,86.79
2018-11-27T05:37:27.196Z,86.79
2018-11-27T05:38:27.634Z,86.54
2018-11-27T05:39:28.147Z,86.74
2018-11-27T05:40:27.693Z,86.56
2018-11-27T05:41:28.135Z,86.51
2018-11-27T05:42:29.208Z,86.50
2018-11-27T05:43:30.115Z,86.67
2018-11-27T05:44:30.513Z,87.05
2018-11-27T05:45:31.069Z,86.86
2018-11-27T05:46:31.513Z,87.00
2018-11-27T05:47:31.893Z,87.08
2018-11-27T05:48:32.396Z,87.37
2018-11-27T05:49:33.294Z,87.44
2018-11-27T05:50:33.884Z,87.23
2018-11-27T05:51:34.411Z,87.39
2018-11-27T05:52:34.871Z,87.28
2018-11-27T05:53:35.311Z,87.18
2018-11-27T05:54:35.910Z,87.48
2018-11-27T05:55:36.369Z,87.57
2018-11-27T05:56:37.088Z,87.71
2018-11-27T05:57:37.573Z,88.25
2018-11-27T05:58:38.011Z,88.43
2018-11-27T05:59:38.426Z,88.11
2018-11-27T06:00:38.885Z,88.41
2018-11-27T06:01:39.389Z,88.33
2018-11-27T06:02:39.955Z,87.75
2018-11-27T06:03:40.657Z,87.48
2018-11-27T06:04:41.123Z,87.33
2018-11-27T06:05:41.505Z,87.40
2018-11-27T06:06:41.551Z,87.71
2018-11-27T06:07:42.158Z,87.88
2018-11-27T06:08:42.772Z,87.90
2018-11-27T06:09:43.700Z,88.00
2018-11-27T06:10:44.296Z,87.87
2018-11-27T06:11:44.892Z,87.72
2018-11-27T06:12:45.798Z,87.91
2018-11-27T06:13:46.203Z,88.13
2018-11-27T06:14:46.764Z,88.27
2018-11-27T06:15:47.191Z,88.04
2018-11-27T06:16:47.816Z,87.94
2018-11-27T06:17:48.465Z,87.82
2018-11-27T06:18:48.152Z,87.96
2018-11-27T06:18:56.200Z,87.85
2018-11-27T06:19:57.626Z,87.83
2018-11-27T06:20:58.050Z,87.93
2018-11-27T06:21:58.758Z,87.78
2018-11-27T06:22:59.621Z,87.92
2018-11-27T06:24:00.120Z,88.15
2018-11-27T06:25:00.652Z,87.95
2018-11-27T06:26:01.281Z,88.09
2018-11-27T06:27:02.082Z,87.91
2018-11-27T06:28:02.503Z,87.58
2018-11-27T06:29:03.135Z,87.68
2018-11-27T06:30:03.563Z,87.83
2018-11-27T06:31:03.988Z,87.82
2018-11-27T06:32:04.538Z,87.94
2018-11-27T06:33:04.954Z,87.93
2018-11-27T06:34:05.357Z,87.57
2018-11-27T06:35:05.905Z,87.37
2018-11-27T06:36:06.300Z,87.33
2018-11-27T06:37:06.782Z,88.09
2018-11-27T06:38:07.345Z,88.52
2018-11-27T06:39:07.803Z,88.42
2018-11-27T06:40:08.263Z,88.53
2018-11-27T06:41:09.012Z,88.56
2018-11-27T06:42:09.449Z,88.70
2018-11-27T06:43:09.433Z,88.66
2018-11-27T06:44:10.265Z,88.25
2018-11-27T06:45:10.740Z,87.97
2018-11-27T06:46:11.149Z,87.60
2018-11-27T06:47:11.595Z,87.68
2018-11-27T06:48:12.097Z,87.88
2018-11-27T06:49:13.085Z,87.92
2018-11-27T06:50:13.689Z,87.85
2018-11-27T06:51:14.427Z,87.86
2018-11-27T06:52:14.876Z,88.20
2018-11-27T06:53:15.337Z,88.08
2018-11-27T06:54:15.863Z,87.98
2018-11-27T06:55:16.238Z,88.12
2018-11-27T06:56:16.810Z,87.89
2018-11-27T06:57:16.525Z,87.97
2018-11-27T06:58:17.518Z,87.88
2018-11-27T06:59:18.146Z,87.82
2018-11-27T07:00:18.553Z,88.15
2018-11-27T07:01:19.008Z,88.33
2018-11-27T07:02:19.419Z,88.08
2018-11-27T07:03:20.004Z,88.37
2018-11-27T07:03:30.051Z,88.17
2018-11-27T07:04:31.434Z,88.15
2018-11-27T07:05:31.780Z,87.99
2018-11-27T07:06:32.455Z,88.44
2018-11-27T07:07:33.049Z,88.62
2018-11-27T07:08:33.540Z,88.74
2018-11-27T07:09:34.332Z,88.66
2018-11-27T07:10:34.773Z,88.46
2018-11-27T07:11:35.215Z,88.96
2018-11-27T07:12:35.622Z,89.45
2018-11-27T07:13:36.260Z,89.93
2018-11-27T07:14:36.594Z,90.18
2018-11-27T07:15:37.185Z,89.93
2018-11-27T07:16:38.035Z,89.83
2018-11-27T07:17:38.629Z,89.77
2018-11-27T07:18:39.003Z,89.82
2018-11-27T07:19:39.533Z,90.26
2018-11-27T07:20:39.991Z,90.33
2018-11-27T07:21:40.481Z,90.73
2018-11-27T07:22:40.906Z,90.45
2018-11-27T07:23:41.382Z,90.44
2018-11-27T07:24:41.909Z,90.37
2018-11-27T07:25:42.469Z,90.39
2018-11-27T07:26:42.947Z,90.53
2018-11-27T07:27:43.341Z,90.20
2018-11-27T07:28:43.774Z,89.88
2018-11-27T07:29:44.303Z,89.32
2018-11-27T07:30:44.881Z,89.83
2018-11-27T07:31:45.720Z,89.71
2018-11-27T07:32:45.854Z,89.82
2018-11-27T07:33:46.224Z,89.96
2018-11-27T07:34:46.349Z,90.15
2018-11-27T07:35:46.362Z,90.09
2018-11-27T07:36:46.531Z,90.01
2018-11-27T07:37:47.204Z,89.64
2018-11-27T07:38:47.790Z,89.47
2018-11-27T07:39:48.272Z,89.56
2018-11-27T07:40:48.760Z,89.51
2018-11-27T07:41:49.252Z,89.87
2018-11-27T07:42:49.673Z,89.90
2018-11-27T07:43:50.121Z,90.03
2018-11-27T07:44:50.591Z,89.77
2018-11-27T07:45:55.210Z,89.96
2018-11-27T07:46:50.736Z,89.83
2018-11-27T07:47:52.213Z,89.80
2018-11-27T07:48:52.639Z,89.72
2018-11-27T07:49:01.799Z,89.66
2018-11-27T07:50:01.207Z,89.69
2018-11-27T07:51:02.715Z,89.47
2018-11-27T07:52:03.252Z,89.13
2018-11-27T07:53:03.671Z,89.13
2018-11-27T07:54:04.070Z,89.23
2018-11-27T07:55:04.556Z,89.69
2018-11-27T07:56:04.984Z,89.79
2018-11-27T07:57:05.492Z,90.03
2018-11-27T07:58:05.969Z,90.17
2018-11-27T07:59:06.440Z,90.33
2018-11-27T08:00:06.998Z,90.03
2018-11-27T08:01:07.664Z,89.77
2018-11-27T08:02:08.116Z,89.65
2018-11-27T08:03:08.501Z,89.91
2018-11-27T08:04:09.212Z,89.94
2018-11-27T08:05:09.218Z,89.53
2018-11-27T08:06:09.633Z,89.32
2018-11-27T08:07:10.143Z,89.19
2018-11-27T08:08:10.489Z,89.03
2018-11-27T08:09:11.021Z,89.20
2018-11-27T08:10:11.476Z,89.68
2018-11-27T08:11:11.874Z,89.74
2018-11-27T08:12:12.471Z,89.69
2018-11-27T08:13:13.095Z,89.51
2018-11-27T08:14:13.575Z,89.51
2018-11-27T08:15:14.291Z,89.45
2018-11-27T08:16:15.218Z,89.12
2018-11-27T08:17:16.061Z,89.79
2018-11-27T08:18:16.547Z,89.20
2018-11-27T08:19:17.138Z,89.53
2018-11-27T08:20:17.600Z,89.50
2018-11-27T08:21:18.181Z,89.33
2018-11-27T08:22:18.688Z,89.45
2018-11-27T08:23:19.628Z,89.56
2018-11-27T08:24:20.072Z,89.52
2018-11-27T08:25:20.556Z,89.54
2018-11-27T08:26:21.041Z,89.67
2018-11-27T08:27:21.578Z,88.98
2018-11-27T08:28:22.144Z,89.24
2018-11-27T08:29:22.706Z,89.05
2018-11-27T08:30:23.206Z,89.33
2018-11-27T08:31:23.816Z,89.72
2018-11-27T08:32:24.276Z,89.76
2018-11-27T08:33:24.485Z,89.87
2018-11-27T08:33:32.822Z,89.59
2018-11-27T08:34:33.516Z,89.57
2018-11-27T08:35:34.016Z,90.20
2018-11-27T08:36:34.630Z,90.26
2018-11-27T08:37:35.289Z,90.30
2018-11-27T08:38:35.789Z,90.43
2018-11-27T08:39:36.520Z,90.34
2018-11-27T08:40:37.461Z,90.33
2018-11-27T08:41:40.248Z,90.21
2018-11-27T08:42:38.019Z,90.15
2018-11-27T08:43:39.515Z,90.13
2018-11-27T08:44:39.959Z,89.77
2018-11-27T08:45:40.489Z,89.81
2018-11-27T08:46:40.952Z,89.83
2018-11-27T08:47:41.566Z,89.61
2018-11-27T08:48:42.123Z,89.04
2018-11-27T08:49:42.590Z,88.91
2018-11-27T08:50:43.041Z,88.66
2018-11-27T08:51:43.585Z,88.35
2018-11-27T08:52:46.644Z,88.62
2018-11-27T08:53:43.696Z,88.45
2018-11-27T08:54:44.831Z,87.99
2018-11-27T08:55:45.804Z,87.63
2018-11-27T08:56:46.485Z,87.72
2018-11-27T08:57:46.861Z,87.76
2018-11-27T08:58:47.233Z,87.85
2018-11-27T08:59:47.978Z,88.36
2018-11-27T09:00:48.723Z,88.00
2018-11-27T09:01:48.901Z,87.47
2018-11-27T09:02:49.555Z,87.38
2018-11-27T09:03:50.394Z,87.07
2018-11-27T09:04:50.737Z,86.85
2018-11-27T09:05:51.192Z,87.26
2018-11-27T09:06:51.375Z,87.49
2018-11-27T09:07:51.726Z,87.42
2018-11-27T09:08:52.153Z,87.71
2018-11-27T09:09:52.692Z,87.25
2018-11-27T09:10:53.193Z,87.09
2018-11-27T09:11:56.711Z,87.13
2018-11-27T09:12:53.441Z,87.08
2018-11-27T09:13:00.894Z,87.03
2018-11-27T09:14:00.874Z,86.99
2018-11-27T09:15:02.363Z,86.80
2018-11-27T09:16:02.745Z,86.46
2018-11-27T09:17:03.153Z,86.33
2018-11-27T09:18:04.009Z,86.67
2018-11-27T09:19:04.521Z,86.29
2018-11-27T09:20:04.993Z,86.21
2018-11-27T09:21:05.408Z,86.21
2018-11-27T09:22:05.883Z,85.97
2018-11-27T09:23:06.269Z,85.79
2018-11-27T09:24:06.737Z,84.62
2018-11-27T09:25:07.210Z,85.49
2018-11-27T09:26:07.571Z,85.45
2018-11-27T09:27:08.321Z,84.69
2018-11-27T09:28:08.860Z,85.19
2018-11-27T09:29:09.310Z,84.96
2018-11-27T09:30:09.678Z,85.65
2018-11-27T09:31:10.081Z,85.12
2018-11-27T09:32:10.499Z,84.79
2018-11-27T09:33:10.932Z,84.39
2018-11-27T09:34:11.395Z,83.43
2018-11-27T09:35:11.951Z,83.70
2018-11-27T09:36:12.384Z,83.85
2018-11-27T09:37:12.977Z,84.14
2018-11-27T09:38:13.698Z,83.84
2018-11-27T09:39:14.236Z,82.83
2018-11-27T09:40:14.879Z,82.29
2018-11-27T09:41:15.717Z,82.36
2018-11-27T09:42:16.233Z,82.70
2018-11-27T09:43:16.726Z,82.52
2018-11-27T09:44:16.853Z,82.72
2018-11-27T09:45:17.421Z,82.73
2018-11-27T09:46:17.785Z,82.75
2018-11-27T09:47:18.591Z,82.87
2018-11-27T09:48:18.998Z,82.61
2018-11-27T09:49:19.603Z,82.77
2018-11-27T09:50:20.135Z,82.46
2018-11-27T09:51:20.510Z,82.70
2018-11-27T09:52:21.004Z,82.74
2018-11-27T09:53:21.444Z,82.87
2018-11-27T09:54:21.983Z,82.96
2018-11-27T09:55:22.778Z,82.52
2018-11-27T09:56:23.228Z,81.29
2018-11-27T09:57:23.819Z,81.42
2018-11-27T09:58:24.314Z,81.35
2018-11-27T09:59:24.925Z,81.90
2018-11-27T09:59:33.445Z,80.57
2018-11-27T10:00:33.975Z,80.60
2018-11-27T10:01:34.373Z,79.89
2018-11-27T10:02:34.887Z,80.56
2018-11-27T10:03:35.368Z,80.00
2018-11-27T10:04:35.816Z,80.12
2018-11-27T10:05:36.180Z,79.81
2018-11-27T10:06:36.719Z,79.67
2018-11-27T10:07:37.170Z,80.12
2018-11-27T10:08:37.748Z,80.36
2018-11-27T10:09:38.248Z,79.81
2018-11-27T10:10:38.622Z,78.94
2018-11-27T10:11:39.225Z,78.65
2018-11-27T10:12:39.842Z,78.52
2018-11-27T10:13:40.762Z,78.59
2018-11-27T10:14:41.623Z,77.63
2018-11-27T10:15:42.040Z,77.83
2018-11-27T10:16:42.549Z,77.76
2018-11-27T10:17:42.877Z,78.44
2018-11-27T10:18:43.495Z,78.95
2018-11-27T10:19:43.888Z,78.44
2018-11-27T10:20:44.555Z,78.55
2018-11-27T10:21:45.169Z,78.68
2018-11-27T10:22:45.799Z,79.08
2018-11-27T10:23:46.532Z,78.25
2018-11-27T10:24:47.262Z,77.64
2018-11-27T10:25:47.809Z,78.44
2018-11-27T10:26:48.196Z,77.67
2018-11-27T10:27:48.682Z,77.85
2018-11-27T10:28:49.176Z,77.87
2018-11-27T10:29:50.072Z,77.80
2018-11-27T10:30:50.555Z,78.40
2018-11-27T10:31:51.359Z,78.79
2018-11-27T10:32:51.961Z,78.86
2018-11-27T10:33:52.440Z,79.02
2018-11-27T10:34:53.136Z,78.87
2018-11-27T10:35:53.423Z,79.08
2018-11-27T10:36:53.899Z,78.96
2018-11-27T10:37:54.307Z,78.83
2018-11-27T10:38:55.098Z,79.38
2018-11-27T10:39:55.396Z,79.08
2018-11-27T10:40:55.948Z,79.16
2018-11-27T10:41:56.452Z,78.06
2018-11-27T10:42:57.222Z,77.92
2018-11-27T10:43:57.951Z,77.36
2018-11-27T10:44:58.747Z,77.26
2018-11-27T10:45:07.165Z,77.23
2018-11-27T10:46:08.589Z,77.25
2018-11-27T10:47:09.031Z,77.33
2018-11-27T10:48:09.574Z,77.55
2018-11-27T10:49:10.365Z,76.80
2018-11-27T10:50:10.945Z,76.72
2018-11-27T10:51:11.573Z,76.57
2018-11-27T10:52:11.965Z,75.94
2018-11-27T10:53:12.350Z,75.98
2018-11-27T10:54:12.872Z,76.34
2018-11-27T10:55:13.782Z,76.71
2018-11-27T10:56:13.813Z,75.35
2018-11-27T10:57:13.927Z,74.98
2018-11-27T10:58:14.843Z,75.53
2018-11-27T10:59:15.406Z,76.36
2018-11-27T11:00:15.959Z,75.59
2018-11-27T11:01:16.786Z,76.11
2018-11-27T11:02:17.230Z,76.54
2018-11-27T11:03:17.762Z,76.00
2018-11-27T11:04:18.204Z,76.13
2018-11-27T11:05:18.704Z,76.15
2018-11-27T11:06:19.371Z,76.68
2018-11-27T11:07:19.972Z,77.32
2018-11-27T11:08:20.499Z,78.00
2018-11-27T11:09:21.101Z,77.86
2018-11-27T11:10:21.814Z,77.03
2018-11-27T11:11:22.336Z,77.34
2018-11-27T11:12:22.757Z,77.45
2018-11-27T11:13:23.223Z,77.59
2018-11-27T11:14:23.626Z,77.67
2018-11-27T11:15:24.131Z,77.77
2018-11-27T11:16:24.886Z,77.88
2018-11-27T11:17:25.541Z,77.28
2018-11-27T11:18:26.471Z,77.59
2018-11-27T11:19:27.233Z,77.79
2018-11-27T11:20:27.679Z,77.71
2018-11-27T11:21:28.548Z,77.81
2018-11-27T11:22:29.226Z,77.20
2018-11-27T11:23:29.652Z,77.19
2018-11-27T11:24:30.187Z,77.10
2018-11-27T11:25:30.676Z,77.23
2018-11-27T11:26:31.217Z,77.18
2018-11-27T11:27:31.828Z,76.96
2018-11-27T11:28:32.360Z,77.43
2018-11-27T11:29:32.971Z,77.18
2018-11-27T11:30:33.618Z,76.95
2018-11-27T11:30:42.193Z,76.40
2018-11-27T11:31:42.662Z,76.29
2018-11-27T11:32:43.453Z,76.79
2018-11-27T11:33:43.649Z,76.80
2018-11-27T11:34:44.109Z,76.25
2018-11-27T11:35:44.530Z,76.84
2018-11-27T11:36:44.955Z,75.71
2018-11-27T11:37:45.557Z,75.40
2018-11-27T11:38:46.099Z,75.81
2018-11-27T11:39:46.973Z,75.01
2018-11-27T11:40:47.441Z,74.53
2018-11-27T11:41:47.930Z,73.04
2018-11-27T11:42:48.404Z,70.75
2018-11-27T11:43:49.290Z,70.88
2018-11-27T11:44:49.400Z,71.01
2018-11-27T11:45:49.920Z,71.30
2018-11-27T11:46:50.191Z,71.98
2018-11-27T11:47:50.602Z,72.23
2018-11-27T11:48:51.115Z,72.13
2018-11-27T11:49:51.768Z,72.92
2018-11-27T11:50:52.227Z,72.73
2018-11-27T11:51:52.591Z,72.31
2018-11-27T11:52:53.316Z,72.94
2018-11-27T11:53:54.145Z,73.10
2018-11-27T11:54:55.042Z,73.22
2018-11-27T11:55:54.245Z,73.35
2018-11-27T11:56:54.410Z,72.76
2018-11-27T11:57:54.822Z,73.21
2018-11-27T11:58:54.596Z,73.36
2018-11-27T11:59:56.078Z,73.21
2018-11-27T12:00:56.505Z,73.37
2018-11-27T12:01:57.325Z,73.64
2018-11-27T12:02:57.869Z,73.21
2018-11-27T12:03:58.541Z,73.03
2018-11-27T12:04:58.953Z,73.17
2018-11-27T12:05:59.865Z,73.72
2018-11-27T12:07:00.406Z,73.18
2018-11-27T12:08:00.820Z,73.27
2018-11-27T12:09:01.647Z,73.34
2018-11-27T12:10:01.139Z,73.30
2018-11-27T12:11:02.823Z,73.30
2018-11-27T12:12:02.294Z,73.58
2018-11-27T12:13:03.686Z,73.58
2018-11-27T12:14:04.165Z,73.11
2018-11-27T12:15:04.637Z,73.29
2018-11-27T12:16:05.313Z,73.40
2018-11-27T12:17:05.960Z,74.17
2018-11-27T12:18:06.651Z,74.60
2018-11-27T12:19:07.406Z,74.91
2018-11-27T12:19:15.827Z,74.89
2018-11-27T12:20:16.394Z,74.86
2018-11-27T12:21:18.250Z,73.10
2018-11-27T12:22:19.310Z,73.21
2018-11-27T12:23:18.263Z,73.07
2018-11-27T12:24:20.027Z,72.42
2018-11-27T12:25:24.179Z,72.81
2018-11-27T12:26:20.403Z,73.55
2018-11-27T12:27:21.826Z,74.21
2018-11-27T12:28:22.482Z,73.96
2018-11-27T12:29:23.032Z,73.62
2018-11-27T12:30:23.511Z,73.43
2018-11-27T12:31:23.541Z,73.17
2018-11-27T12:32:24.040Z,73.51
2018-11-27T12:33:24.508Z,74.14
2018-11-27T12:34:24.997Z,74.44
2018-11-27T12:35:25.526Z,74.36
2018-11-27T12:36:26.465Z,74.61
2018-11-27T12:37:27.097Z,74.69
2018-11-27T12:38:27.479Z,74.69
2018-11-27T12:39:28.130Z,74.67
2018-11-27T12:40:28.533Z,75.44
2018-11-27T12:41:28.938Z,75.87
2018-11-27T12:42:29.452Z,75.73
2018-11-27T12:43:30.021Z,75.89
2018-11-27T12:44:30.620Z,75.96